sensor_id;sensor_type;location;lat;lon;timestamp;pressure;altitude;pressure_sealevel;temperature;humidity
66164;BME280;52962;51.088;3.096;2024-01-30T00:01:39;102185.97;;;27.79;nan
66164;BME280;52962;51.088;3.096;2024-01-30T00:04:08;102191.53;;;27.74;nan
66164;BME280;52962;51.088;3.096;2024-01-30T00:06:36;102197.78;;;28.06;nan
66164;BME280;52962;51.088;3.096;2024-01-30T00:09:04;102191.16;;;27.86;nan
66164;BME280;52962;51.088;3.096;2024-01-30T00:11:34;102192.66;;;27.96;nan
66164;BME280;52962;51.088;3.096;2024-01-30T00:14:03;102195.59;;;27.89;nan
66164;BME280;52962;51.088;3.096;2024-01-30T00:16:31;102190.97;;;27.92;nan
66164;BME280;52962;51.088;3.096;2024-01-30T00:18:59;102192.66;;;27.96;nan
66164;BME280;52962;51.088;3.096;2024-01-30T00:21:29;102181.44;;;27.79;nan
66164;BME280;52962;51.088;3.096;2024-01-30T00:23:57;102178.38;;;27.91;nan
66164;BME280;52962;51.088;3.096;2024-01-30T00:26:25;102185.28;;;28.02;nan
66164;BME280;52962;51.088;3.096;2024-01-30T00:28:55;102187.31;;;27.93;nan
66164;BME280;52962;51.088;3.096;2024-01-30T00:31:25;102178.63;;;27.82;nan
66164;BME280;52962;51.088;3.096;2024-01-30T00:33:53;102175.41;;;27.70;nan
66164;BME280;52962;51.088;3.096;2024-01-30T00:36:21;102164.69;;;27.96;nan
66164;BME280;52962;51.088;3.096;2024-01-30T00:38:49;102167.75;;;28.12;nan
66164;BME280;52962;51.088;3.096;2024-01-30T00:41:18;102174.72;;;27.92;nan
66164;BME280;52962;51.088;3.096;2024-01-30T00:43:46;102172.72;;;27.99;nan
66164;BME280;52962;51.088;3.096;2024-01-30T00:46:16;102175.97;;;27.50;nan
66164;BME280;52962;51.088;3.096;2024-01-30T00:48:44;102173.47;;;28.32;nan
66164;BME280;52962;51.088;3.096;2024-01-30T00:51:12;102173.91;;;27.27;nan
66164;BME280;52962;51.088;3.096;2024-01-30T00:53:40;102175.66;;;27.62;nan
66164;BME280;52962;51.088;3.096;2024-01-30T00:56:09;102174.47;;;27.71;nan
66164;BME280;52962;51.088;3.096;2024-01-30T00:58:37;102170.19;;;27.63;nan
66164;BME280;52962;51.088;3.096;2024-01-30T01:01:05;102185.63;;;27.58;nan
66164;BME280;52962;51.088;3.096;2024-01-30T01:03:36;102180.44;;;27.51;nan
66164;BME280;52962;51.088;3.096;2024-01-30T01:06:04;102178.41;;;27.59;nan
66164;BME280;52962;51.088;3.096;2024-01-30T01:08:33;102175.94;;;27.19;nan
66164;BME280;52962;51.088;3.096;2024-01-30T01:11:01;102181.78;;;27.36;nan
66164;BME280;52962;51.088;3.096;2024-01-30T01:13:30;102168.78;;;27.49;nan
66164;BME280;52962;51.088;3.096;2024-01-30T01:15:59;102176.09;;;27.45;nan
66164;BME280;52962;51.088;3.096;2024-01-30T01:18:27;102177.25;;;27.36;nan
66164;BME280;52962;51.088;3.096;2024-01-30T01:20:56;102172.50;;;27.45;nan
66164;BME280;52962;51.088;3.096;2024-01-30T01:23:26;102161.69;;;27.45;nan
66164;BME280;52962;51.088;3.096;2024-01-30T01:25:55;102153.84;;;27.35;nan
66164;BME280;52962;51.088;3.096;2024-01-30T01:28:27;102154.59;;;27.41;nan
66164;BME280;52962;51.088;3.096;2024-01-30T01:30:55;102151.47;;;27.23;nan
66164;BME280;52962;51.088;3.096;2024-01-30T01:33:32;102158.78;;;27.20;nan
66164;BME280;52962;51.088;3.096;2024-01-30T01:36:02;102158.13;;;27.43;nan
66164;BME280;52962;51.088;3.096;2024-01-30T01:38:30;102144.03;;;27.31;nan
66164;BME280;52962;51.088;3.096;2024-01-30T01:40:59;102143.19;;;27.29;nan
66164;BME280;52962;51.088;3.096;2024-01-30T01:43:27;102143.50;;;27.50;nan
66164;BME280;52962;51.088;3.096;2024-01-30T01:46:05;102139.81;;;27.52;40.05
66164;BME280;52962;51.088;3.096;2024-01-30T01:48:34;102141.06;;;27.41;39.70
66164;BME280;52962;51.088;3.096;2024-01-30T01:51:02;102144.56;;;27.44;39.98
66164;BME280;52962;51.088;3.096;2024-01-30T01:53:32;102132.72;;;27.48;40.02
66164;BME280;52962;51.088;3.096;2024-01-30T01:56:00;102138.72;;;27.59;39.95
66164;BME280;52962;51.088;3.096;2024-01-30T01:58:32;102134.91;;;27.35;40.15
66164;BME280;52962;51.088;3.096;2024-01-30T02:02:17;102130.91;;;27.49;40.29
66164;BME280;52962;51.088;3.096;2024-01-30T02:04:47;102134.28;;;27.57;39.82
66164;BME280;52962;51.088;3.096;2024-01-30T02:07:16;102136.13;;;27.55;39.96
66164;BME280;52962;51.088;3.096;2024-01-30T02:09:45;102130.81;;;27.52;39.82
66164;BME280;52962;51.088;3.096;2024-01-30T02:12:13;102132.78;;;27.47;39.93
66164;BME280;52962;51.088;3.096;2024-01-30T02:14:45;102130.81;;;27.52;39.94
66164;BME280;52962;51.088;3.096;2024-01-30T02:17:13;102133.28;;;27.61;39.78
66164;BME280;52962;51.088;3.096;2024-01-30T02:19:42;102140.41;;;27.63;39.97
66164;BME280;52962;51.088;3.096;2024-01-30T02:22:12;102141.25;;;27.65;39.78
66164;BME280;52962;51.088;3.096;2024-01-30T02:24:41;102136.13;;;27.55;39.92
66164;BME280;52962;51.088;3.096;2024-01-30T02:27:09;102137.25;;;28.61;39.15
66164;BME280;52962;51.088;3.096;2024-01-30T02:29:37;102132.41;;;27.59;39.85
66164;BME280;52962;51.088;3.096;2024-01-30T02:32:05;102133.59;;;27.49;39.81
66164;BME280;52962;51.088;3.096;2024-01-30T02:34:34;102127.31;;;29.36;37.89
66164;BME280;52962;51.088;3.096;2024-01-30T02:37:02;102142.19;;;27.64;39.27
66164;BME280;52962;51.088;3.096;2024-01-30T02:39:32;102142.47;;;27.54;39.67
66164;BME280;52962;51.088;3.096;2024-01-30T02:42:00;102141.16;;;27.38;40.19
66164;BME280;52962;51.088;3.096;2024-01-30T02:44:28;102141.13;;;27.70;39.54
66164;BME280;52962;51.088;3.096;2024-01-30T02:46:56;102133.84;;;27.72;39.51
66164;BME280;52962;51.088;3.096;2024-01-30T02:49:24;102133.66;;;27.47;39.67
66164;BME280;52962;51.088;3.096;2024-01-30T02:51:53;102132.69;;;27.50;39.77
66164;BME280;52962;51.088;3.096;2024-01-30T02:54:22;102139.03;;;27.49;39.59
66164;BME280;52962;51.088;3.096;2024-01-30T02:56:51;102143.81;;;27.39;40.04
66164;BME280;52962;51.088;3.096;2024-01-30T02:59:19;102129.97;;;27.50;40.08
66164;BME280;52962;51.088;3.096;2024-01-30T03:01:47;102125.50;;;27.49;39.85
66164;BME280;52962;51.088;3.096;2024-01-30T03:04:15;102127.75;;;27.33;39.97
66164;BME280;52962;51.088;3.096;2024-01-30T03:06:46;102123.63;;;27.20;40.31
66164;BME280;52962;51.088;3.096;2024-01-30T03:09:16;102132.38;;;27.29;40.00
66164;BME280;52962;51.088;3.096;2024-01-30T03:11:45;102136.75;;;27.33;40.17
66164;BME280;52962;51.088;3.096;2024-01-30T03:14:14;102134.91;;;27.35;39.82
66164;BME280;52962;51.088;3.096;2024-01-30T03:16:42;102125.75;;;27.40;40.07
66164;BME280;52962;51.088;3.096;2024-01-30T03:19:10;102124.06;;;27.35;40.36
66164;BME280;52962;51.088;3.096;2024-01-30T03:21:38;102117.06;;;27.28;40.00
66164;BME280;52962;51.088;3.096;2024-01-30T03:24:07;102120.72;;;27.27;40.37
66164;BME280;52962;51.088;3.096;2024-01-30T03:26:35;102117.47;;;29.80;38.88
66164;BME280;52962;51.088;3.096;2024-01-30T03:29:04;102121.00;;;27.48;39.90
66164;BME280;52962;51.088;3.096;2024-01-30T03:31:33;102122.56;;;27.25;40.00
66164;BME280;52962;51.088;3.096;2024-01-30T03:34:01;102119.09;;;27.20;40.41
66164;BME280;52962;51.088;3.096;2024-01-30T03:36:29;102120.44;;;27.36;39.98
66164;BME280;52962;51.088;3.096;2024-01-30T03:38:59;102118.56;;;27.39;40.11
66164;BME280;52962;51.088;3.096;2024-01-30T03:41:27;102109.88;;;27.27;39.94
66164;BME280;52962;51.088;3.096;2024-01-30T03:43:56;102113.22;;;27.68;39.94
66164;BME280;52962;51.088;3.096;2024-01-30T03:46:24;102113.22;;;27.68;39.50
66164;BME280;52962;51.088;3.096;2024-01-30T03:48:54;102114.56;;;27.52;39.45
66164;BME280;52962;51.088;3.096;2024-01-30T03:51:23;102101.41;;;27.71;39.79
66164;BME280;52962;51.088;3.096;2024-01-30T03:53:53;102104.16;;;27.69;39.66
66164;BME280;52962;51.088;3.096;2024-01-30T03:56:21;102098.94;;;27.63;39.62
66164;BME280;52962;51.088;3.096;2024-01-30T03:58:49;102094.28;;;27.68;39.80
66164;BME280;52962;51.088;3.096;2024-01-30T04:01:17;102092.41;;;27.70;39.18
66164;BME280;52962;51.088;3.096;2024-01-30T04:03:46;102090.16;;;27.84;39.39
66164;BME280;52962;51.088;3.096;2024-01-30T04:06:15;102084.28;;;27.70;39.34
66164;BME280;52962;51.088;3.096;2024-01-30T04:08:43;102085.13;;;27.72;39.10
66164;BME280;52962;51.088;3.096;2024-01-30T04:11:11;102080.09;;;27.60;39.63
66164;BME280;52962;51.088;3.096;2024-01-30T04:13:39;102080.59;;;27.73;39.59
66164;BME280;52962;51.088;3.096;2024-01-30T04:16:19;102079.94;;;27.64;39.49
66164;BME280;52962;51.088;3.096;2024-01-30T04:18:47;102082.41;;;27.72;39.78
66164;BME280;52962;51.088;3.096;2024-01-30T04:21:17;102082.06;;;27.83;39.42
66164;BME280;52962;51.088;3.096;2024-01-30T04:23:45;102078.34;;;27.87;39.55
66164;BME280;52962;51.088;3.096;2024-01-30T04:26:13;102078.81;;;27.99;39.65
66164;BME280;52962;51.088;3.096;2024-01-30T04:28:41;102076.94;;;28.02;39.42
66164;BME280;52962;51.088;3.096;2024-01-30T04:31:10;102080.06;;;28.16;39.11
66164;BME280;52962;51.088;3.096;2024-01-30T04:33:40;102070.66;;;28.01;39.45
66164;BME280;52962;51.088;3.096;2024-01-30T04:36:10;102071.75;;;28.48;39.00
66164;BME280;52962;51.088;3.096;2024-01-30T04:38:39;102072.50;;;28.27;39.08
66164;BME280;52962;51.088;3.096;2024-01-30T04:41:07;102072.22;;;28.35;39.23
66164;BME280;52962;51.088;3.096;2024-01-30T04:43:36;102067.59;;;28.38;38.97
66164;BME280;52962;51.088;3.096;2024-01-30T04:46:04;102081.03;;;28.41;39.08
66164;BME280;52962;51.088;3.096;2024-01-30T04:48:33;102083.69;;;28.43;39.11
66164;BME280;52962;51.088;3.096;2024-01-30T04:51:01;102091.81;;;28.43;39.07
66164;BME280;52962;51.088;3.096;2024-01-30T04:53:30;102090.31;;;28.34;39.57
66164;BME280;52962;51.088;3.096;2024-01-30T04:56:00;102087.28;;;28.43;39.30
66164;BME280;52962;51.088;3.096;2024-01-30T04:58:28;102087.75;;;28.81;38.79
66164;BME280;52962;51.088;3.096;2024-01-30T05:00:56;102092.16;;;28.85;38.81
66164;BME280;52962;51.088;3.096;2024-01-30T05:03:25;102092.56;;;28.99;38.78
66164;BME280;52962;51.088;3.096;2024-01-30T05:05:53;102098.53;;;29.09;38.75
66164;BME280;52962;51.088;3.096;2024-01-30T05:08:22;102099.03;;;28.95;38.91
66164;BME280;52962;51.088;3.096;2024-01-30T05:10:50;102103.63;;;29.16;38.55
66164;BME280;52962;51.088;3.096;2024-01-30T05:13:19;102105.78;;;29.08;38.49
66164;BME280;52962;51.088;3.096;2024-01-30T05:15:47;102105.16;;;29.00;38.54
66164;BME280;52962;51.088;3.096;2024-01-30T05:18:15;102097.47;;;28.88;38.84
66164;BME280;52962;51.088;3.096;2024-01-30T05:20:43;102108.03;;;28.44;39.41
66164;BME280;52962;51.088;3.096;2024-01-30T05:23:11;102103.06;;;28.83;38.98
66164;BME280;52962;51.088;3.096;2024-01-30T05:25:40;102108.63;;;28.79;39.25
66164;BME280;52962;51.088;3.096;2024-01-30T05:28:08;102107.78;;;29.03;38.33
66164;BME280;52962;51.088;3.096;2024-01-30T05:30:37;102112.09;;;28.84;38.68
66164;BME280;52962;51.088;3.096;2024-01-30T05:33:06;102109.31;;;28.85;39.06
66164;BME280;52962;51.088;3.096;2024-01-30T05:35:34;102118.56;;;28.53;39.14
66164;BME280;52962;51.088;3.096;2024-01-30T05:38:02;102121.06;;;28.59;39.00
66164;BME280;52962;51.088;3.096;2024-01-30T05:40:30;102125.44;;;28.63;38.76
66164;BME280;52962;51.088;3.096;2024-01-30T05:42:58;102122.59;;;28.67;39.25
66164;BME280;52962;51.088;3.096;2024-01-30T05:45:29;102132.56;;;28.92;38.56
66164;BME280;52962;51.088;3.096;2024-01-30T05:47:59;102121.16;;;28.30;39.28
66164;BME280;52962;51.088;3.096;2024-01-30T05:50:27;102130.38;;;28.51;39.59
66164;BME280;52962;51.088;3.096;2024-01-30T05:52:55;102128.28;;;28.59;39.61
66164;BME280;52962;51.088;3.096;2024-01-30T05:55:23;102126.81;;;28.75;39.13
66164;BME280;52962;51.088;3.096;2024-01-30T05:57:51;102128.81;;;28.44;39.33
66164;BME280;52962;51.088;3.096;2024-01-30T06:00:20;102122.41;;;28.73;39.05
66164;BME280;52962;51.088;3.096;2024-01-30T06:02:48;102125.53;;;28.87;38.83
66164;BME280;52962;51.088;3.096;2024-01-30T06:05:17;102135.16;;;28.69;38.60
66164;BME280;52962;51.088;3.096;2024-01-30T06:07:45;102129.81;;;28.68;38.69
66164;BME280;52962;51.088;3.096;2024-01-30T06:10:14;102133.06;;;28.77;39.01
66164;BME280;52962;51.088;3.096;2024-01-30T06:12:42;102149.97;;;28.59;38.88
66164;BME280;52962;51.088;3.096;2024-01-30T06:15:10;102140.69;;;28.66;38.68
66164;BME280;52962;51.088;3.096;2024-01-30T06:17:40;102144.81;;;28.51;38.82
66164;BME280;52962;51.088;3.096;2024-01-30T06:20:08;102153.03;;;28.20;39.01
66164;BME280;52962;51.088;3.096;2024-01-30T06:22:37;102153.06;;;28.48;39.15
66164;BME280;52962;51.088;3.096;2024-01-30T06:25:06;102152.53;;;28.63;38.73
66164;BME280;52962;51.088;3.096;2024-01-30T06:27:34;102155.34;;;28.60;38.75
66164;BME280;52962;51.088;3.096;2024-01-30T06:30:03;102166.09;;;28.63;39.19
66164;BME280;52962;51.088;3.096;2024-01-30T06:32:32;102166.56;;;28.76;38.95
66164;BME280;52962;51.088;3.096;2024-01-30T06:35:01;102170.47;;;28.68;39.13
66164;BME280;52962;51.088;3.096;2024-01-30T06:37:30;102167.94;;;28.89;38.65
66164;BME280;52962;51.088;3.096;2024-01-30T06:39:59;102172.91;;;29.02;38.51
66164;BME280;52962;51.088;3.096;2024-01-30T06:42:27;102184.38;;;28.85;38.56
66164;BME280;52962;51.088;3.096;2024-01-30T06:44:55;102190.63;;;29.85;37.20
66164;BME280;52962;51.088;3.096;2024-01-30T06:47:23;102192.91;;;28.99;38.10
66164;BME280;52962;51.088;3.096;2024-01-30T06:49:51;102180.31;;;29.21;38.12
66164;BME280;52962;51.088;3.096;2024-01-30T06:52:19;102185.63;;;29.24;38.27
66164;BME280;52962;51.088;3.096;2024-01-30T06:54:47;102195.41;;;29.05;38.34
66164;BME280;52962;51.088;3.096;2024-01-30T06:57:17;102192.47;;;29.11;38.21
66164;BME280;52962;51.088;3.096;2024-01-30T06:59:45;102202.50;;;29.09;38.30
66164;BME280;52962;51.088;3.096;2024-01-30T07:02:14;102195.78;;;28.94;38.47
66164;BME280;52962;51.088;3.096;2024-01-30T07:04:42;102196.88;;;28.89;39.02
66164;BME280;52962;51.088;3.096;2024-01-30T07:07:13;102196.22;;;29.07;38.69
66164;BME280;52962;51.088;3.096;2024-01-30T07:09:42;102189.34;;;28.97;38.37
66164;BME280;52962;51.088;3.096;2024-01-30T07:12:11;102201.63;;;28.82;38.62
66164;BME280;52962;51.088;3.096;2024-01-30T07:14:40;102198.84;;;28.84;38.62
66164;BME280;52962;51.088;3.096;2024-01-30T07:17:08;102200.97;;;28.74;39.14
66164;BME280;52962;51.088;3.096;2024-01-30T07:19:37;102200.97;;;29.01;38.96
66164;BME280;52962;51.088;3.096;2024-01-30T07:22:05;102205.84;;;28.91;38.61
66164;BME280;52962;51.088;3.096;2024-01-30T07:24:33;102210.84;;;29.03;38.76
66164;BME280;52962;51.088;3.096;2024-01-30T07:27:01;102209.69;;;29.10;38.78
66164;BME280;52962;51.088;3.096;2024-01-30T07:29:29;102215.47;;;28.73;38.77
66164;BME280;52962;51.088;3.096;2024-01-30T07:31:59;102219.22;;;29.20;39.07
66164;BME280;52962;51.088;3.096;2024-01-30T07:34:27;102225.88;;;28.87;38.86
66164;BME280;52962;51.088;3.096;2024-01-30T07:36:56;102214.38;;;29.05;38.52
66164;BME280;52962;51.088;3.096;2024-01-30T07:39:24;102226.97;;;28.80;38.87
66164;BME280;52962;51.088;3.096;2024-01-30T07:41:53;102220.81;;;29.03;39.15
66164;BME280;52962;51.088;3.096;2024-01-30T07:44:22;102233.94;;;28.88;38.92
66164;BME280;52962;51.088;3.096;2024-01-30T07:46:50;102244.34;;;28.46;39.36
66164;BME280;52962;51.088;3.096;2024-01-30T07:49:20;102240.09;;;28.65;39.62
66164;BME280;52962;51.088;3.096;2024-01-30T07:51:48;102251.31;;;28.83;39.28
66164;BME280;52962;51.088;3.096;2024-01-30T07:54:16;102267.22;;;28.38;39.79
66164;BME280;52962;51.088;3.096;2024-01-30T07:56:44;102261.44;;;27.89;40.36
66164;BME280;52962;51.088;3.096;2024-01-30T07:59:13;102266.69;;;27.64;40.80
66164;BME280;52962;51.088;3.096;2024-01-30T08:01:41;102271.34;;;27.58;40.52
66164;BME280;52962;51.088;3.096;2024-01-30T08:04:09;102277.88;;;27.83;39.70
66164;BME280;52962;51.088;3.096;2024-01-30T08:06:39;102260.44;;;27.93;40.12
66164;BME280;52962;51.088;3.096;2024-01-30T08:09:10;102268.38;;;27.99;40.26
66164;BME280;52962;51.088;3.096;2024-01-30T08:11:38;102274.16;;;28.46;39.76
66164;BME280;52962;51.088;3.096;2024-01-30T08:14:06;102272.41;;;27.85;39.96
66164;BME280;52962;51.088;3.096;2024-01-30T08:16:34;102282.44;;;27.81;39.75
66164;BME280;52962;51.088;3.096;2024-01-30T08:19:03;102276.19;;;27.79;39.88
66164;BME280;52962;51.088;3.096;2024-01-30T08:21:31;102273.94;;;28.24;39.60
66164;BME280;52962;51.088;3.096;2024-01-30T08:24:08;102288.09;;;28.05;39.70
66164;BME280;52962;51.088;3.096;2024-01-30T08:26:37;102283.06;;;27.91;39.81
66164;BME280;52962;51.088;3.096;2024-01-30T08:29:05;102292.34;;;27.82;40.00
66164;BME280;52962;51.088;3.096;2024-01-30T08:31:34;102300.81;;;28.01;39.53
66164;BME280;52962;51.088;3.096;2024-01-30T08:34:02;102314.38;;;28.01;39.46
66164;BME280;52962;51.088;3.096;2024-01-30T08:36:30;102309.56;;;28.70;38.29
66164;BME280;52962;51.088;3.096;2024-01-30T08:38:59;102307.47;;;28.78;38.51
66164;BME280;52962;51.088;3.096;2024-01-30T08:41:33;102320.09;;;28.20;38.24
66164;BME280;52962;51.088;3.096;2024-01-30T08:44:01;102314.44;;;27.98;37.92
66164;BME280;52962;51.088;3.096;2024-01-30T08:46:30;102318.38;;;27.54;38.66
66164;BME280;52962;51.088;3.096;2024-01-30T08:48:58;102326.34;;;27.24;38.75
66164;BME280;52962;51.088;3.096;2024-01-30T08:51:27;102319.75;;;27.36;37.90
66164;BME280;52962;51.088;3.096;2024-01-30T08:53:55;102331.50;;;28.02;37.30
66164;BME280;52962;51.088;3.096;2024-01-30T08:56:24;102332.78;;;27.20;37.73
66164;BME280;52962;51.088;3.096;2024-01-30T08:58:54;102337.94;;;27.29;37.85
66164;BME280;52962;51.088;3.096;2024-01-30T09:01:22;102335.63;;;27.84;37.26
66164;BME280;52962;51.088;3.096;2024-01-30T09:03:50;102344.56;;;27.52;37.33
66164;BME280;52962;51.088;3.096;2024-01-30T09:06:18;102349.84;;;27.22;37.86
66164;BME280;52962;51.088;3.096;2024-01-30T09:08:46;102348.44;;;27.06;37.97
66164;BME280;52962;51.088;3.096;2024-01-30T09:11:15;102343.41;;;27.63;37.50
66164;BME280;52962;51.088;3.096;2024-01-30T09:13:43;102340.66;;;27.65;37.22
66164;BME280;52962;51.088;3.096;2024-01-30T09:16:13;102349.53;;;28.03;37.06
66164;BME280;52962;51.088;3.096;2024-01-30T09:18:42;102343.09;;;27.74;37.07
66164;BME280;52962;51.088;3.096;2024-01-30T09:21:11;102358.91;;;27.55;37.41
66164;BME280;52962;51.088;3.096;2024-01-30T09:23:39;102354.53;;;27.16;38.21
66164;BME280;52962;51.088;3.096;2024-01-30T09:26:07;102350.47;;;27.33;38.30
66164;BME280;52962;51.088;3.096;2024-01-30T09:28:36;102359.88;;;27.53;38.04
66164;BME280;52962;51.088;3.096;2024-01-30T09:31:04;102358.31;;;27.44;37.69
66164;BME280;52962;51.088;3.096;2024-01-30T09:33:34;102368.44;;;27.72;37.67
66164;BME280;52962;51.088;3.096;2024-01-30T09:36:03;102375.44;;;27.45;37.57
66164;BME280;52962;51.088;3.096;2024-01-30T09:38:31;102388.88;;;27.12;37.61
66164;BME280;52962;51.088;3.096;2024-01-30T09:41:03;102396.09;;;27.12;37.34
66164;BME280;52962;51.088;3.096;2024-01-30T09:43:37;102396.88;;;26.78;37.55
66164;BME280;52962;51.088;3.096;2024-01-30T09:46:07;102391.16;;;27.66;36.99
66164;BME280;52962;51.088;3.096;2024-01-30T09:48:40;102385.53;;;27.38;37.12
66164;BME280;52962;51.088;3.096;2024-01-30T09:51:09;102391.41;;;27.18;37.35
66164;BME280;52962;51.088;3.096;2024-01-30T09:53:37;102405.72;;;27.59;36.90
66164;BME280;52962;51.088;3.096;2024-01-30T09:56:06;102401.19;;;27.61;36.18
66164;BME280;52962;51.088;3.096;2024-01-30T09:58:35;102411.84;;;28.01;35.71
66164;BME280;52962;51.088;3.096;2024-01-30T10:01:04;102399.03;;;27.75;36.39
66164;BME280;52962;51.088;3.096;2024-01-30T10:03:32;102408.66;;;27.50;35.95
66164;BME280;52962;51.088;3.096;2024-01-30T10:06:02;102403.88;;;27.25;36.31
66164;BME280;52962;51.088;3.096;2024-01-30T10:08:31;102408.28;;;27.29;36.25
66164;BME280;52962;51.088;3.096;2024-01-30T10:11:00;102412.09;;;27.21;36.17
66164;BME280;52962;51.088;3.096;2024-01-30T10:13:29;102412.50;;;27.77;35.96
66164;BME280;52962;51.088;3.096;2024-01-30T10:15:57;102404.50;;;27.72;35.84
66164;BME280;52962;51.088;3.096;2024-01-30T10:18:26;102413.66;;;27.31;35.76
66164;BME280;52962;51.088;3.096;2024-01-30T10:20:55;102413.94;;;27.56;35.69
66164;BME280;52962;51.088;3.096;2024-01-30T10:23:26;102409.53;;;27.87;35.42
66164;BME280;52962;51.088;3.096;2024-01-30T10:26:02;102411.63;;;27.76;35.80
66164;BME280;52962;51.088;3.096;2024-01-30T10:28:30;102424.59;;;27.97;35.70
66164;BME280;52962;51.088;3.096;2024-01-30T10:30:58;102419.59;;;27.82;35.25
66164;BME280;52962;51.088;3.096;2024-01-30T10:33:30;102425.44;;;27.65;35.13
66164;BME280;52962;51.088;3.096;2024-01-30T10:36:00;102418.19;;;28.00;35.12
66164;BME280;52962;51.088;3.096;2024-01-30T10:38:31;102422.84;;;27.61;35.52
66164;BME280;52962;51.088;3.096;2024-01-30T10:41:00;102428.25;;;27.61;35.75
66164;BME280;52962;51.088;3.096;2024-01-30T10:43:33;102431.09;;;27.18;35.67
66164;BME280;52962;51.088;3.096;2024-01-30T10:46:10;102430.03;;;27.62;35.70
66164;BME280;52962;51.088;3.096;2024-01-30T10:48:42;102450.25;;;27.46;35.41
66164;BME280;52962;51.088;3.096;2024-01-30T10:51:13;102447.06;;;26.90;36.50
66164;BME280;52962;51.088;3.096;2024-01-30T10:53:46;102450.34;;;27.43;35.74
66164;BME280;52962;51.088;3.096;2024-01-30T10:56:16;102452.22;;;28.09;35.35
66164;BME280;52962;51.088;3.096;2024-01-30T10:58:45;102461.16;;;27.80;35.40
66164;BME280;52962;51.088;3.096;2024-01-30T11:01:14;102453.41;;;27.66;35.55
66164;BME280;52962;51.088;3.096;2024-01-30T11:03:44;102472.56;;;27.55;35.54
66164;BME280;52962;51.088;3.096;2024-01-30T11:06:14;102470.75;;;27.56;35.84
66164;BME280;52962;51.088;3.096;2024-01-30T11:09:00;102463.19;;;27.33;35.63
66164;BME280;52962;51.088;3.096;2024-01-30T11:11:29;102465.13;;;28.00;35.40
66164;BME280;52962;51.088;3.096;2024-01-30T11:14:00;102472.31;;;28.02;35.52
66164;BME280;52962;51.088;3.096;2024-01-30T11:16:31;102478.84;;;27.57;35.60
66164;BME280;52962;51.088;3.096;2024-01-30T11:19:00;102476.75;;;27.31;35.97
66164;BME280;52962;51.088;3.096;2024-01-30T11:21:29;102487.06;;;27.14;36.29
66164;BME280;52962;51.088;3.096;2024-01-30T11:24:02;102496.69;;;27.66;35.90
66164;BME280;52962;51.088;3.096;2024-01-30T11:26:31;102504.25;;;27.12;34.73
66164;BME280;52962;51.088;3.096;2024-01-30T11:29:03;102497.91;;;26.73;34.84
66164;BME280;52962;51.088;3.096;2024-01-30T11:31:31;102508.72;;;27.14;34.45
66164;BME280;52962;51.088;3.096;2024-01-30T11:34:00;102498.91;;;27.09;33.77
66164;BME280;52962;51.088;3.096;2024-01-30T11:36:30;102510.50;;;26.74;34.21
66164;BME280;52962;51.088;3.096;2024-01-30T11:39:02;102504.28;;;26.68;34.83
66164;BME280;52962;51.088;3.096;2024-01-30T11:41:30;102504.44;;;27.04;34.18
66164;BME280;52962;51.088;3.096;2024-01-30T11:44:03;102500.09;;;26.98;34.10
66164;BME280;52962;51.088;3.096;2024-01-30T11:46:32;102509.28;;;26.44;34.53
66164;BME280;52962;51.088;3.096;2024-01-30T11:49:01;102508.47;;;26.83;34.91
66164;BME280;52962;51.088;3.096;2024-01-30T11:51:30;102504.59;;;27.36;34.17
66164;BME280;52962;51.088;3.096;2024-01-30T11:53:59;102505.44;;;27.39;34.13
66164;BME280;52962;51.088;3.096;2024-01-30T11:56:28;102510.50;;;27.15;34.58
66164;BME280;52962;51.088;3.096;2024-01-30T11:58:56;102503.22;;;27.17;34.60
66164;BME280;52962;51.088;3.096;2024-01-30T12:01:27;102507.19;;;27.41;34.35
66164;BME280;52962;51.088;3.096;2024-01-30T12:03:59;102510.97;;;27.34;34.45
66164;BME280;52962;51.088;3.096;2024-01-30T12:06:27;102508.78;;;26.20;34.81
66164;BME280;52962;51.088;3.096;2024-01-30T12:09:00;102508.72;;;27.14;34.25
66164;BME280;52962;51.088;3.096;2024-01-30T12:11:32;102500.75;;;27.47;34.05
66164;BME280;52962;51.088;3.096;2024-01-30T12:14:00;102512.31;;;27.15;34.87
66164;BME280;52962;51.088;3.096;2024-01-30T12:16:28;102516.09;;;27.06;34.43
66164;BME280;52962;51.088;3.096;2024-01-30T12:19:00;102513.91;;;27.23;34.46
66164;BME280;52962;51.088;3.096;2024-01-30T12:21:29;102519.47;;;27.56;34.33
66164;BME280;52962;51.088;3.096;2024-01-30T12:23:57;102518.75;;;27.48;34.24
66164;BME280;52962;51.088;3.096;2024-01-30T12:26:27;102514.78;;;26.84;34.20
66164;BME280;52962;51.088;3.096;2024-01-30T12:28:56;102523.63;;;26.92;34.19
66164;BME280;52962;51.088;3.096;2024-01-30T12:31:26;102540.69;;;26.94;33.90
66164;BME280;52962;51.088;3.096;2024-01-30T12:33:54;102535.84;;;26.66;34.31
66164;BME280;52962;51.088;3.096;2024-01-30T12:36:25;102532.06;;;27.18;34.21
66164;BME280;52962;51.088;3.096;2024-01-30T12:38:53;102546.84;;;26.57;34.11
66164;BME280;52962;51.088;3.096;2024-01-30T12:41:22;102546.97;;;26.51;34.02
66164;BME280;52962;51.088;3.096;2024-01-30T12:43:57;102538.09;;;26.89;33.79
66164;BME280;52962;51.088;3.096;2024-01-30T12:46:28;102535.13;;;26.58;33.63
66164;BME280;52962;51.088;3.096;2024-01-30T12:48:57;102566.53;;;26.12;34.20
66164;BME280;52962;51.088;3.096;2024-01-30T12:51:25;102542.78;;;26.80;33.79
66164;BME280;52962;51.088;3.096;2024-01-30T12:53:53;102541.13;;;27.16;33.63
66164;BME280;52962;51.088;3.096;2024-01-30T12:56:21;102550.84;;;25.84;34.06
66164;BME280;52962;51.088;3.096;2024-01-30T12:58:50;102541.56;;;26.97;33.64
66164;BME280;52962;51.088;3.096;2024-01-30T13:01:23;102565.56;;;26.17;34.22
66164;BME280;52962;51.088;3.096;2024-01-30T13:03:52;102551.16;;;26.17;34.41